Time;durP1;ratioP1;P1;durP2;ratioP2;P2;SDS_P1;SDS_P2;PMS_P1;PMS_P2;Temp;Humidity;BMP_temperature;BMP_pressure;BME280_temperature;BME280_humidity;BME280_pressure;Samples;Min_cycle;Max_cycle;Signal;HPM_P1;HPM_P2
2023/08/14 00:00:27;;;;;;;7.75;7.15;;;;;;;;;;5031697;28;20289;-63
2023/08/14 00:02:54;;;;;;;7.47;6.78;;;;;;;;;;5031242;28;20254;-63
2023/08/14 00:05:20;;;;;;;10.00;7.00;;;;;;;;;;5031190;28;20235;-63
2023/08/14 00:07:46;;;;;;;6.80;6.30;;;;;;;;;;5031020;28;20257;-63
2023/08/14 00:10:13;;;;;;;7.95;6.10;;;;;;;;;;5031291;28;20228;-64
2023/08/14 00:12:39;;;;;;;8.32;5.40;;;;;;;;;;5030781;28;20211;-63
2023/08/14 00:15:08;;;;;;;5.43;4.90;;;;;;;;;;5031022;28;20242;-64
2023/08/14 00:17:35;;;;;;;5.57;5.18;;;;;;;;;;5030826;28;20204;-63
2023/08/14 00:20:01;;;;;;;5.97;5.18;;;;;;;;;;5031420;28;20273;-64
2023/08/14 00:22:28;;;;;;;6.47;5.95;;;;;;;;;;5031120;28;20204;-63
2023/08/14 00:24:55;;;;;;;5.80;5.35;;;;;;;;;;5030540;28;20957;-63
2023/08/14 00:27:22;;;;;;;6.15;5.35;;;;;;;;;;5030769;28;20212;-63
2023/08/14 00:29:49;;;;;;;5.60;5.18;;;;;;;;;;5031233;28;20219;-63
2023/08/14 00:32:16;;;;;;;5.00;4.60;;;;;;;;;;5030984;28;20262;-63
2023/08/14 00:34:43;;;;;;;4.72;4.38;;;;;;;;;;5031474;28;20231;-62
2023/08/14 00:37:09;;;;;;;4.68;3.80;;;;;;;;;;5030481;28;20285;-63
2023/08/14 00:39:36;;;;;;;4.95;4.30;;;;;;;;;;5031304;28;20196;-64
2023/08/14 00:42:02;;;;;;;4.13;3.83;;;;;;;;;;5030129;28;20203;-63
2023/08/14 00:44:30;;;;;;;4.40;4.00;;;;;;;;;;5030893;28;20230;-63
2023/08/14 00:46:56;;;;;;;4.18;3.97;;;;;;;;;;5030407;28;20258;-63
2023/08/14 00:49:24;;;;;;;3.88;3.67;;;;;;;;;;5030993;28;20215;-62
2023/08/14 00:51:51;;;;;;;3.60;3.40;;;;;;;;;;5030362;28;20223;-63
2023/08/14 00:54:17;;;;;;;6.25;3.72;;;;;;;;;;5030946;28;20239;-62
2023/08/14 00:56:44;;;;;;;4.13;3.38;;;;;;;;;;5030028;28;20246;-64
2023/08/14 00:59:11;;;;;;;3.80;3.60;;;;;;;;;;5030786;28;20632;-63
2023/08/14 01:01:37;;;;;;;4.10;3.90;;;;;;;;;;5030028;28;20625;-64
2023/08/14 01:04:05;;;;;;;4.53;4.13;;;;;;;;;;5030381;28;20259;-63
2023/08/14 01:06:32;;;;;;;3.70;3.40;;;;;;;;;;5030117;28;20196;-64
2023/08/14 01:08:59;;;;;;;5.25;4.10;;;;;;;;;;5030018;28;20282;-64
2023/08/14 01:11:29;;;;;;;4.18;3.78;;;;;;;;;;5030220;28;20235;-63
2023/08/14 01:14:00;;;;;;;3.95;3.65;;;;;;;;;;5029638;28;20645;-64
2023/08/14 01:16:30;;;;;;;3.58;3.38;;;;;;;;;;5037449;28;20257;-63
2023/08/14 01:18:56;;;;;;;5.05;4.65;;;;;;;;;;5034832;28;20257;-63
2023/08/14 01:21:29;;;;;;;4.88;4.57;;;;;;;;;;5030619;28;20231;-63
2023/08/14 01:24:02;;;;;;;6.45;4.63;;;;;;;;;;5030083;28;20251;-63
2023/08/14 01:26:31;;;;;;;6.93;4.95;;;;;;;;;;5030454;28;20282;-64
2023/08/14 01:28:58;;;;;;;5.68;4.85;;;;;;;;;;5029863;28;20245;-64
2023/08/14 01:31:24;;;;;;;9.27;5.53;;;;;;;;;;5030241;28;20705;-63
2023/08/14 01:33:51;;;;;;;4.78;3.70;;;;;;;;;;5029812;28;20227;-64
2023/08/14 01:36:21;;;;;;;4.80;3.65;;;;;;;;;;5030079;28;20203;-64
2023/08/14 01:38:50;;;;;;;6.78;3.60;;;;;;;;;;5029495;28;20203;-63
2023/08/14 01:41:20;;;;;;;3.78;3.58;;;;;;;;;;5030519;28;20207;-63
2023/08/14 01:43:49;;;;;;;3.63;3.40;;;;;;;;;;5029815;28;20210;-63
2023/08/14 01:46:16;;;;;;;3.58;3.38;;;;;;;;;;5029718;28;20257;-63
2023/08/14 01:48:42;;;;;;;4.75;3.58;;;;;;;;;;5029933;28;20350;-64
2023/08/14 01:51:10;;;;;;;3.50;3.30;;;;;;;;;;5029782;28;20255;-63
2023/08/14 01:53:37;;;;;;;3.35;3.17;;;;;;;;;;5029743;28;20227;-64
2023/08/14 01:56:03;;;;;;;3.83;3.60;;;;;;;;;;5029565;28;20235;-63
2023/08/14 01:58:30;;;;;;;3.67;3.47;;;;;;;;;;5028955;28;20207;-63
2023/08/14 02:00:57;;;;;;;3.10;2.90;;;;;;;;;;5029819;28;20277;-64
2023/08/14 02:03:25;;;;;;;3.47;3.10;;;;;;;;;;5029784;28;20203;-63
2023/08/14 02:05:51;;;;;;;3.40;3.15;;;;;;;;;;5029354;28;20231;-63
2023/08/14 02:08:17;;;;;;;3.65;3.45;;;;;;;;;;5030012;28;20196;-63
2023/08/14 02:10:46;;;;;;;3.55;3.35;;;;;;;;;;5030164;28;20705;-63
2023/08/14 02:13:12;;;;;;;3.83;3.13;;;;;;;;;;5030969;28;20291;-63
2023/08/14 02:15:39;;;;;;;4.72;4.25;;;;;;;;;;5031296;28;20239;-63
2023/08/14 02:18:07;;;;;;;7.90;4.00;;;;;;;;;;5030774;28;20200;-64
2023/08/14 02:20:33;;;;;;;6.97;4.55;;;;;;;;;;5029642;28;20211;-65
2023/08/14 02:22:59;;;;;;;4.32;4.03;;;;;;;;;;5030166;28;20200;-63
2023/08/14 02:25:26;;;;;;;5.40;5.05;;;;;;;;;;5029673;28;20208;-63
2023/08/14 02:27:52;;;;;;;5.10;4.55;;;;;;;;;;5029367;28;20703;-63
2023/08/14 02:30:19;;;;;;;5.82;4.90;;;;;;;;;;5029475;28;20356;-63
2023/08/14 02:32:45;;;;;;;5.13;4.63;;;;;;;;;;5029857;28;20216;-63
2023/08/14 02:35:13;;;;;;;5.70;5.30;;;;;;;;;;5029751;28;20207;-64
2023/08/14 02:37:39;;;;;;;5.03;4.63;;;;;;;;;;5029973;28;20678;-63
2023/08/14 02:40:07;;;;;;;5.65;5.18;;;;;;;;;;5029798;28;20262;-62
2023/08/14 02:42:33;;;;;;;6.47;5.38;;;;;;;;;;5031396;28;20222;-64
2023/08/14 02:45:00;;;;;;;5.97;5.57;;;;;;;;;;5029384;28;20216;-63
2023/08/14 02:47:26;;;;;;;5.20;4.90;;;;;;;;;;5030039;28;20236;-63
2023/08/14 02:49:52;;;;;;;5.65;5.15;;;;;;;;;;5032931;28;20216;-64
2023/08/14 02:52:20;;;;;;;7.65;5.50;;;;;;;;;;5033250;28;20277;-63
2023/08/14 02:54:47;;;;;;;5.57;5.18;;;;;;;;;;5032864;28;20195;-63
2023/08/14 02:57:13;;;;;;;6.25;5.80;;;;;;;;;;5032998;28;20204;-63
2023/08/14 02:59:40;;;;;;;9.27;5.75;;;;;;;;;;5032632;28;20203;-63
2023/08/14 03:02:06;;;;;;;6.40;5.82;;;;;;;;;;5033058;28;20594;-63
2023/08/14 03:04:33;;;;;;;5.57;5.00;;;;;;;;;;5032910;28;20235;-63
2023/08/14 03:06:59;;;;;;;4.88;4.47;;;;;;;;;;5033377;28;20196;-64
2023/08/14 03:09:27;;;;;;;6.80;6.13;;;;;;;;;;5032539;28;20285;-64
2023/08/14 03:11:53;;;;;;;6.18;5.80;;;;;;;;;;5033265;28;20203;-63
2023/08/14 03:14:20;;;;;;;5.78;5.30;;;;;;;;;;5032410;28;20200;-63
2023/08/14 03:16:46;;;;;;;6.25;5.75;;;;;;;;;;5032672;28;20257;-63
2023/08/14 03:19:13;;;;;;;5.55;5.22;;;;;;;;;;5032278;28;20649;-63
2023/08/14 03:21:39;;;;;;;8.05;5.40;;;;;;;;;;5032965;28;20274;-63
2023/08/14 03:24:06;;;;;;;6.00;5.50;;;;;;;;;;5044880;28;20199;-63
2023/08/14 03:26:34;;;;;;;8.80;5.85;;;;;;;;;;5033096;28;20238;-62
2023/08/14 03:29:00;;;;;;;11.32;5.50;;;;;;;;;;5032161;28;20242;-63
2023/08/14 03:31:27;;;;;;;6.28;5.03;;;;;;;;;;5032654;28;20231;-62
2023/08/14 03:33:53;;;;;;;5.72;5.20;;;;;;;;;;5031977;28;20215;-63
2023/08/14 03:36:20;;;;;;;6.03;5.63;;;;;;;;;;5032116;28;20261;-60
2023/08/14 03:38:46;;;;;;;5.80;5.38;;;;;;;;;;5036011;28;20692;-61
2023/08/14 03:41:13;;;;;;;5.45;5.05;;;;;;;;;;5039867;28;20200;-62
2023/08/14 03:43:40;;;;;;;6.25;5.82;;;;;;;;;;5032102;28;20732;-62
2023/08/14 03:46:07;;;;;;;7.95;5.93;;;;;;;;;;5032175;28;20204;-62
2023/08/14 03:48:33;;;;;;;6.05;5.55;;;;;;;;;;5032071;28;20211;-62
2023/08/14 03:51:00;;;;;;;6.43;5.82;;;;;;;;;;5032112;28;20228;-62
2023/08/14 03:53:26;;;;;;;5.68;5.20;;;;;;;;;;5031535;28;20313;-63
2023/08/14 03:55:53;;;;;;;5.18;4.88;;;;;;;;;;5032013;28;20673;-62
2023/08/14 03:58:19;;;;;;;6.68;6.13;;;;;;;;;;5031431;28;20258;-63
2023/08/14 04:00:47;;;;;;;6.32;5.72;;;;;;;;;;5030978;28;20227;-62
2023/08/14 04:03:14;;;;;;;6.30;5.70;;;;;;;;;;5031757;28;20284;-62
2023/08/14 04:05:41;;;;;;;8.88;5.93;;;;;;;;;;5031618;28;20281;-63
2023/08/14 04:08:07;;;;;;;8.98;5.82;;;;;;;;;;5031326;28;20263;-63
2023/08/14 04:10:33;;;;;;;7.50;6.00;;;;;;;;;;5031513;28;20273;-63
2023/08/14 04:13:00;;;;;;;10.73;6.32;;;;;;;;;;5031276;28;20231;-62
2023/08/14 04:15:27;;;;;;;8.30;7.55;;;;;;;;;;5031787;28;20249;-63
2023/08/14 04:17:55;;;;;;;9.18;7.05;;;;;;;;;;5030931;28;20258;-63
2023/08/14 04:20:22;;;;;;;7.80;6.43;;;;;;;;;;5031759;28;20208;-63
2023/08/14 04:22:48;;;;;;;7.88;6.38;;;;;;;;;;5031055;28;20204;-63
2023/08/14 04:25:16;;;;;;;6.93;6.30;;;;;;;;;;5031261;28;20208;-63
2023/08/14 04:27:43;;;;;;;7.90;6.70;;;;;;;;;;5030936;28;20200;-63
2023/08/14 04:30:10;;;;;;;7.55;6.07;;;;;;;;;;5031868;28;20259;-64
2023/08/14 04:32:36;;;;;;;10.45;5.78;;;;;;;;;;5031086;28;20257;-65
2023/08/14 04:35:04;;;;;;;7.15;5.32;;;;;;;;;;5030970;28;20678;-63
2023/08/14 04:37:31;;;;;;;6.53;5.22;;;;;;;;;;5019329;28;20207;-63
2023/08/14 04:39:57;;;;;;;6.07;5.63;;;;;;;;;;5031098;28;20207;-63
2023/08/14 04:42:24;;;;;;;5.53;5.03;;;;;;;;;;5031273;28;20224;-63
2023/08/14 04:44:50;;;;;;;5.95;5.38;;;;;;;;;;5031093;28;20235;-63
2023/08/14 04:47:17;;;;;;;6.45;5.60;;;;;;;;;;5030683;28;20226;-62
2023/08/14 04:49:43;;;;;;;6.32;5.60;;;;;;;;;;5031061;28;20211;-63
2023/08/14 04:52:11;;;;;;;6.25;5.85;;;;;;;;;;5030706;28;20351;-63
2023/08/14 04:54:37;;;;;;;14.60;6.32;;;;;;;;;;5030685;28;20204;-63
2023/08/14 04:57:04;;;;;;;6.03;5.45;;;;;;;;;;5031183;28;20227;-63
2023/08/14 04:59:30;;;;;;;6.32;5.85;;;;;;;;;;5030489;28;20219;-63
2023/08/14 05:01:56;;;;;;;6.63;5.80;;;;;;;;;;5030957;28;20227;-63
2023/08/14 05:04:23;;;;;;;6.20;5.63;;;;;;;;;;5029924;28;20232;-63
2023/08/14 05:06:49;;;;;;;10.70;6.20;;;;;;;;;;5030619;28;20247;-63
2023/08/14 05:09:17;;;;;;;7.50;6.30;;;;;;;;;;5030599;28;20200;-63
2023/08/14 05:11:44;;;;;;;6.47;5.88;;;;;;;;;;5030235;28;20266;-63
2023/08/14 05:14:10;;;;;;;6.03;5.50;;;;;;;;;;5029776;28;20207;-63
2023/08/14 05:16:36;;;;;;;8.95;5.65;;;;;;;;;;5030304;28;20262;-62
2023/08/14 05:19:03;;;;;;;5.43;4.97;;;;;;;;;;5029999;28;20215;-63
2023/08/14 05:21:30;;;;;;;5.32;4.80;;;;;;;;;;5030341;28;20205;-63
2023/08/14 05:23:56;;;;;;;8.05;5.57;;;;;;;;;;5029739;28;20288;-63
2023/08/14 05:26:24;;;;;;;6.85;4.82;;;;;;;;;;5030617;28;20203;-63
2023/08/14 05:28:50;;;;;;;6.20;5.55;;;;;;;;;;5029484;28;20745;-63
2023/08/14 05:31:17;;;;;;;6.88;4.90;;;;;;;;;;5030685;28;20261;-62
2023/08/14 05:33:43;;;;;;;5.80;5.30;;;;;;;;;;5029588;28;21116;-63
2023/08/14 05:36:09;;;;;;;6.05;5.65;;;;;;;;;;5029850;28;20230;-63
2023/08/14 05:38:36;;;;;;;6.03;5.50;;;;;;;;;;5029887;28;20239;-62
2023/08/14 05:41:02;;;;;;;6.25;5.65;;;;;;;;;;5030283;28;20212;-63
2023/08/14 05:43:30;;;;;;;11.50;5.30;;;;;;;;;;5029782;28;20651;-62
2023/08/14 05:45:57;;;;;;;6.40;6.00;;;;;;;;;;5030495;28;20261;-63
2023/08/14 05:48:23;;;;;;;9.40;6.18;;;;;;;;;;5029870;28;20208;-63
2023/08/14 05:50:51;;;;;;;14.15;5.70;;;;;;;;;;5030466;28;20281;-64
2023/08/14 05:53:17;;;;;;;9.90;4.95;;;;;;;;;;5029762;28;20281;-63
2023/08/14 05:55:44;;;;;;;5.82;5.43;;;;;;;;;;5030373;28;20285;-63
2023/08/14 05:58:10;;;;;;;7.05;5.78;;;;;;;;;;5030126;28;20208;-63
2023/08/14 06:00:39;;;;;;;5.68;5.28;;;;;;;;;;5030212;28;20231;-63
2023/08/14 06:03:07;;;;;;;6.30;5.70;;;;;;;;;;5029908;28;20262;-63
2023/08/14 06:05:34;;;;;;;6.75;5.05;;;;;;;;;;5029789;28;20235;-63
2023/08/14 06:08:00;;;;;;;5.80;5.20;;;;;;;;;;5029637;28;20200;-63
2023/08/14 06:10:27;;;;;;;7.25;5.43;;;;;;;;;;5029794;28;20208;-64
2023/08/14 06:12:53;;;;;;;5.57;5.20;;;;;;;;;;5029375;28;20203;-64
2023/08/14 06:15:20;;;;;;;5.70;5.20;;;;;;;;;;5030009;28;20261;-64
2023/08/14 06:17:49;;;;;;;5.55;5.18;;;;;;;;;;5029095;28;20287;-64
2023/08/14 06:20:15;;;;;;;6.88;6.20;;;;;;;;;;5029925;28;20208;-64
2023/08/14 06:22:43;;;;;;;8.52;6.00;;;;;;;;;;5030080;28;20666;-64
2023/08/14 06:25:11;;;;;;;5.20;4.72;;;;;;;;;;5033560;28;20200;-64
2023/08/14 06:27:37;;;;;;;9.82;8.10;;;;;;;;;;5033157;28;20297;-64
2023/08/14 06:30:04;;;;;;;10.05;6.63;;;;;;;;;;5033221;28;20290;-63
2023/08/14 06:32:31;;;;;;;6.88;6.28;;;;;;;;;;5032970;28;20219;-64
2023/08/14 06:34:59;;;;;;;5.97;5.40;;;;;;;;;;5033189;28;20593;-64
2023/08/14 06:37:25;;;;;;;7.97;5.53;;;;;;;43.85;nan;95542.19;5033217;28;20199;-64
2023/08/14 06:39:52;;;;;;;6.22;5.13;;;;;;;44.87;nan;95533.50;5033603;28;20203;-64
2023/08/14 06:42:19;;;;;;;7.22;4.60;;;;;;;44.68;nan;95534.91;5033344;28;20196;-64
2023/08/14 06:44:45;;;;;;;5.50;4.65;;;;;;;45.55;nan;95534.59;5033346;28;20302;-64
2023/08/14 06:47:12;;;;;;;8.18;6.30;;;;;;;45.26;nan;95552.91;5032822;28;20204;-63
2023/08/14 06:49:39;;;;;;;5.55;4.90;;;;;;;;;;5033275;28;20200;-64
2023/08/14 06:52:07;;;;;;;6.90;5.15;;;;;;;;;;5033285;28;20662;-64
2023/08/14 06:54:33;;;;;;;5.90;5.28;;;;;;;;;;5032873;28;20302;-64
2023/08/14 06:57:01;;;;;;;6.18;4.85;;;;;;;;;;5033247;28;20262;-63
2023/08/14 06:59:27;;;;;;;4.78;4.38;;;;;;;;;;5032831;28;20219;-64
2023/08/14 07:01:54;;;;;;;6.22;4.60;;;;;;;;;;5032923;28;20250;-64
2023/08/14 07:04:21;;;;;;;8.45;4.45;;;;;;;44.82;nan;95546.84;5032876;28;20662;-64
2023/08/14 07:06:48;;;;;;;6.75;5.13;;;;;;;44.51;nan;95545.75;5033214;28;20208;-63
2023/08/14 07:09:16;;;;;;;6.40;4.30;;;;;;;44.06;nan;95554.00;5032706;28;20228;-65
2023/08/14 07:11:43;;;;;;;6.32;5.22;;;;;;;43.41;nan;95541.28;5032394;28;20234;-64
2023/08/14 07:14:09;;;;;;;5.50;3.88;;;;;;;;;;5032025;28;20671;-64
2023/08/14 07:16:36;;;;;;;4.70;3.78;;;;;;;42.80;nan;95550.97;5032657;28;20199;-64
2023/08/14 07:19:03;;;;;;;6.82;4.63;;;;;;;;;;5032447;28;20211;-64
2023/08/14 07:21:30;;;;;;;4.13;3.72;;;;;;;;;;5032413;28;20707;-64
2023/08/14 07:23:56;;;;;;;7.10;3.38;;;;;;;;;;5032252;28;20215;-64
2023/08/14 07:26:24;;;;;;;4.18;3.67;;;;;;;;;;5032361;28;20764;-64
2023/08/14 07:28:50;;;;;;;4.07;3.50;;;;;;;;;;5032126;28;20717;-65
2023/08/14 07:31:17;;;;;;;4.55;4.15;;;;;;;;;;5033333;28;20301;-64
2023/08/14 07:33:43;;;;;;;4.45;3.20;;;;;;;;;;5032360;28;20405;-64
2023/08/14 07:36:10;;;;;;;4.05;3.70;;;;;;;;;;5033617;28;20212;-63
2023/08/14 07:38:36;;;;;;;9.75;3.58;;;;;;;;;;5032726;28;20199;-63
2023/08/14 07:41:02;;;;;;;6.95;3.90;;;;;;;;;;5032994;28;20258;-63
2023/08/14 07:43:30;;;;;;;3.47;3.17;;;;;;;;;;5032843;28;20215;-63
2023/08/14 07:45:57;;;;;;;10.15;2.83;;;;;;;;;;5033011;28;20227;-65
2023/08/14 07:48:23;;;;;;;10.73;2.92;;;;;;;;;;5031987;28;20196;-63
2023/08/14 07:50:53;;;;;;;2.85;2.65;;;;;;;;;;5032596;28;20330;-63
2023/08/14 07:53:19;;;;;;;3.35;2.85;;;;;;;;;;5032288;28;20231;-63
2023/08/14 07:55:48;;;;;;;2.85;2.65;;;;;;;;;;5032983;28;20227;-63
2023/08/14 07:58:14;;;;;;;3.15;2.83;;;;;;;;;;5033163;28;20204;-64
2023/08/14 08:00:42;;;;;;;7.80;2.83;;;;;;;;;;5033380;28;20243;-65
2023/08/14 08:03:08;;;;;;;7.28;3.15;;;;;;;;;;5033652;28;20219;-64
2023/08/14 08:05:35;;;;;;;3.50;3.20;;;;;;;;;;5032002;28;20239;-64
2023/08/14 08:08:02;;;;;;;3.15;2.95;;;;;;;;;;5031874;28;20388;-64
2023/08/14 08:10:28;;;;;;;9.23;3.35;;;;;;;;;;5032265;28;20227;-64
2023/08/14 08:12:55;;;;;;;2.72;2.53;;;;;;;;;;5030707;28;20254;-64
2023/08/14 08:15:21;;;;;;;7.32;3.00;;;;;;;;;;5031745;28;20204;-64
2023/08/14 08:17:49;;;;;;;3.17;2.67;;;;;;;;;;5031043;28;20601;-64
2023/08/14 08:20:16;;;;;;;4.75;3.20;;;;;;;;;;5032080;28;20211;-64
2023/08/14 08:22:42;;;;;;;3.33;2.97;;;;;;;;;;5031175;28;20211;-64
2023/08/14 08:25:09;;;;;;;7.80;2.80;;;;;;;;;;5031504;28;20701;-65
2023/08/14 08:27:36;;;;;;;2.67;2.58;;;;;;;;;;5030834;28;20334;-64
2023/08/14 08:30:03;;;;;;;5.43;3.40;;;;;;;;;;5031732;28;20204;-64
2023/08/14 08:32:29;;;;;;;2.78;2.67;;;;;;;;;;5030922;28;20596;-63
2023/08/14 08:34:57;;;;;;;5.93;3.20;;;;;;;;;;5031227;28;20644;-64
2023/08/14 08:37:23;;;;;;;3.13;2.90;;;;;;;;;;5030801;28;20261;-64
2023/08/14 08:39:50;;;;;;;5.22;2.97;;;;;;;;;;5030855;28;20199;-64
2023/08/14 08:42:17;;;;;;;3.88;3.67;;;;;;;;;;5030687;28;20192;-63
2023/08/14 08:44:45;;;;;;;3.83;3.47;;;;;;;;;;5031146;28;20232;-64
2023/08/14 08:47:14;;;;;;;5.00;3.22;;;;;;;;;;5017423;28;20200;-64
2023/08/14 08:49:41;;;;;;;3.58;3.13;;;;;;;;;;5030712;28;20204;-64
2023/08/14 08:52:10;;;;;;;3.30;3.10;;;;;;;;;;5030907;28;20794;-63
2023/08/14 08:54:37;;;;;;;4.15;2.58;;;;;;;;;;5030662;28;20200;-63
2023/08/14 08:57:05;;;;;;;2.85;2.65;;;;;;;;;;5030668;28;20693;-64
2023/08/14 08:59:32;;;;;;;5.57;2.90;;;;;;;;;;5030519;28;20231;-63
2023/08/14 09:01:59;;;;;;;3.08;2.88;;;;;;;;;;5031135;28;20211;-64
2023/08/14 09:04:25;;;;;;;2.88;2.75;;;;;;;;;;5030410;28;20227;-64
2023/08/14 09:06:52;;;;;;;4.38;3.08;;;;;;;;;;5030697;28;20288;-63
2023/08/14 09:09:20;;;;;;;2.55;2.45;;;;;;;;;;5030103;28;20681;-64
2023/08/14 09:11:46;;;;;;;9.45;2.58;;;;;;;;;;5030654;28;20258;-64
2023/08/14 09:14:15;;;;;;;2.90;2.80;;;;;;;37.68;nan;95540.72;5030164;28;20235;-63
2023/08/14 09:16:42;;;;;;;2.95;2.75;;;;;;;;;;5030154;28;20651;-65
2023/08/14 09:19:08;;;;;;;2.70;2.60;;;;;;;;;;5030313;28;20216;-65
2023/08/14 09:21:34;;;;;;;3.10;2.90;;;;;;;;;;5030731;28;20273;-64
2023/08/14 09:24:01;;;;;;;3.13;2.80;;;;;;;;;;5030047;28;20265;-65
2023/08/14 09:26:29;;;;;;;3.17;2.60;;;;;;;;;;5030479;28;20292;-64
2023/08/14 09:28:56;;;;;;;2.85;2.75;;;;;;;;;;5029805;28;20204;-64
2023/08/14 09:31:22;;;;;;;3.35;2.60;;;;;;;;;;5030645;28;20261;-64
2023/08/14 09:33:49;;;;;;;3.05;2.85;;;;;;;;;;5030223;28;20231;-65
2023/08/14 09:36:16;;;;;;;3.58;3.28;;;;;;;;;;5029920;28;20618;-65
2023/08/14 09:38:43;;;;;;;3.00;2.60;;;;;;;;;;5029979;28;20200;-65
2023/08/14 09:41:09;;;;;;;6.05;2.78;;;;;;;;;;5030091;28;20638;-65
2023/08/14 09:43:37;;;;;;;2.63;2.50;;;;;;;;;;5029739;28;20674;-65
2023/08/14 09:46:04;;;;;;;3.55;2.33;;;;;;;;;;5030623;28;20214;-65
2023/08/14 09:48:39;;;;;;;2.60;2.40;;;;;;;;;;5030105;28;20297;-64
2023/08/14 09:51:06;;;;;;;2.97;2.78;;;;;;;;;;5030546;28;20234;-64
2023/08/14 09:53:43;;;;;;;4.13;2.53;;;;;;;;;;5029409;28;20289;-64
2023/08/14 09:56:10;;;;;;;2.55;2.45;;;;;;;;;;5029645;28;20587;-64
2023/08/14 09:58:38;;;;;;;7.07;3.25;;;;;;;;;;5033839;28;20235;-65
2023/08/14 10:01:04;;;;;;;5.60;2.67;;;;;;;;;;5033858;28;20207;-64
2023/08/14 10:03:32;;;;;;;3.63;3.33;;;;;;;;;;5033833;28;20200;-64
2023/08/14 10:05:58;;;;;;;2.63;2.53;;;;;;;;;;5033497;28;20689;-64
2023/08/14 10:08:25;;;;;;;3.30;3.10;;;;;;;;;;5033844;28;20637;-63
2023/08/14 10:10:51;;;;;;;3.05;2.80;;;;;;;;;;5033160;28;20211;-62
2023/08/14 10:13:18;;;;;;;4.05;2.97;;;;;;;;;;5033983;28;20312;-63
2023/08/14 10:15:48;;;;;;;3.05;2.80;;;;;;;;;;5033338;28;20239;-64
2023/08/14 10:18:16;;;;;;;5.38;3.38;;;;;;;;;;5033590;28;20207;-64
2023/08/14 10:20:43;;;;;;;3.10;2.90;;;;;;;;;;5022959;28;21272;-62
2023/08/14 10:23:09;;;;;;;3.17;2.97;;;;;;;;;;5033391;28;20307;-63
2023/08/14 10:25:37;;;;;;;2.95;2.75;;;;;;;;;;5033979;28;20222;-63
2023/08/14 10:28:04;;;;;;;2.55;2.35;;;;;;;;;;5032969;28;20646;-62
2023/08/14 10:30:31;;;;;;;3.88;2.97;;;;;;;;;;5043093;28;20227;-64
2023/08/14 10:32:59;;;;;;;2.90;2.80;;;;;;;;;;5033415;28;20219;-63
2023/08/14 10:35:25;;;;;;;2.60;2.40;;;;;;;;;;5033131;28;20204;-63
2023/08/14 10:37:52;;;;;;;3.83;2.60;;;;;;;;;;5033023;28;20627;-62
2023/08/14 10:40:20;;;;;;;3.15;2.95;;;;;;;;;;5032936;28;20199;-63
2023/08/14 10:42:46;;;;;;;3.30;2.70;;;;;;;;;;5033159;28;20231;-64
2023/08/14 10:45:15;;;;;;;7.60;3.00;;;;;;;;;;5033173;28;20195;-64
2023/08/14 10:47:42;;;;;;;2.97;2.63;;;;;;;;;;5033280;28;20231;-63
2023/08/14 10:50:18;;;;;;;3.35;3.10;;;;;;;;;;5032776;28;20250;-63
2023/08/14 10:52:45;;;;;;;6.00;2.70;;;;;;;;;;5032987;28;20301;-63
2023/08/14 10:55:15;;;;;;;2.97;2.55;;;;;;;;;;5033011;28;20215;-64
2023/08/14 10:57:41;;;;;;;4.13;3.05;;;;;;;;;;5032374;28;20208;-63
2023/08/14 11:00:19;;;;;;;3.22;3.00;;;;;;;;;;5033300;28;20231;-62
2023/08/14 11:02:49;;;;;;;4.95;2.72;;;;;;;;;;5032630;28;20204;-62
2023/08/14 11:05:17;;;;;;;5.57;3.53;;;;;;;;;;5032561;28;20262;-62
2023/08/14 11:07:56;;;;;;;4.20;2.90;;;;;;;;;;5032530;28;20203;-64
2023/08/14 11:10:24;;;;;;;2.45;2.35;;;;;;;;;;5032410;28;20223;-61
2023/08/14 11:12:50;;;;;;;3.75;2.75;;;;;;;;;;5032288;28;20259;-61
2023/08/14 11:15:20;;;;;;;8.20;2.85;;;;;;;;;;5032952;28;20311;-61
2023/08/14 11:17:46;;;;;;;3.38;2.72;;;;;;;;;;5032392;28;20199;-63
2023/08/14 11:20:13;;;;;;;2.88;2.67;;;;;;;;;;5032961;28;20646;-64
2023/08/14 11:22:43;;;;;;;3.20;2.95;;;;;;;;;;5032158;28;20208;-63
2023/08/14 11:25:10;;;;;;;2.85;2.65;;;;;;;;;;5032664;28;20266;-64
2023/08/14 11:27:36;;;;;;;2.63;2.40;;;;;;;;;;5032019;28;20730;-64
2023/08/14 11:30:03;;;;;;;3.25;2.97;;;;;;;;;;5032719;28;20290;-63
2023/08/14 11:32:30;;;;;;;2.75;2.55;;;;;;;;;;5032011;28;20701;-63
2023/08/14 11:34:56;;;;;;;2.60;2.45;;;;;;;;;;5032726;28;20207;-63
2023/08/14 11:37:23;;;;;;;3.00;2.80;;;;;;;;;;5031946;28;20640;-62
2023/08/14 11:39:50;;;;;;;5.70;2.80;;;;;;;;;;5032640;28;20211;-63
2023/08/14 11:42:17;;;;;;;2.90;2.38;;;;;;;;;;5031660;28;20677;-61
2023/08/14 11:44:43;;;;;;;2.70;2.60;;;;;;;;;;5044653;28;20206;-64
2023/08/14 11:47:11;;;;;;;3.00;2.85;;;;;;;;;;5032181;28;20200;-64
2023/08/14 11:49:38;;;;;;;4.55;3.20;;;;;;;;;;5031672;28;20744;-64
2023/08/14 11:52:05;;;;;;;4.85;3.67;;;;;;;;;;5032278;28;20737;-64
2023/08/14 11:54:31;;;;;;;3.20;2.90;;;;;;;;;;5031845;28;20235;-64
2023/08/14 11:57:01;;;;;;;3.10;2.90;;;;;;;;;;5032167;28;20231;-63
2023/08/14 11:59:27;;;;;;;4.97;2.45;;;;;;;;;;5031792;28;20693;-62
2023/08/14 12:01:54;;;;;;;2.65;2.55;;;;;;;;;;5031817;28;20242;-63
2023/08/14 12:04:21;;;;;;;2.85;2.65;;;;;;;;;;5031556;28;20259;-62
2023/08/14 12:06:47;;;;;;;4.50;2.40;;;;;;;;;;5031457;28;20204;-64
2023/08/14 12:09:13;;;;;;;2.75;2.65;;;;;;;;;;5031348;28;20203;-63
2023/08/14 12:11:40;;;;;;;2.50;2.40;;;;;;;;;;5032004;28;20234;-63
2023/08/14 12:14:08;;;;;;;2.58;2.47;;;;;;;;;;5030802;28;20255;-63
2023/08/14 12:16:38;;;;;;;6.13;2.88;;;;;;;;;;5031682;28;20630;-64
2023/08/14 12:19:06;;;;;;;5.10;2.95;;;;;;;;;;5030879;28;20566;-64
2023/08/14 12:21:33;;;;;;;3.17;2.88;;;;;;;;;;5030710;28;20199;-63
2023/08/14 12:24:01;;;;;;;3.13;2.92;;;;;;;;;;5030736;28;20277;-64
2023/08/14 12:26:28;;;;;;;2.80;2.60;;;;;;;;;;5031309;28;20270;-64
2023/08/14 12:28:54;;;;;;;3.35;2.33;;;;;;;;;;5031139;28;20231;-63
2023/08/14 12:31:22;;;;;;;3.45;3.15;;;;;;;;;;5031462;28;20222;-63
2023/08/14 12:33:48;;;;;;;2.80;2.60;;;;;;;;;;5031111;28;20306;-63
2023/08/14 12:36:15;;;;;;;3.00;2.80;;;;;;;;;;5031239;28;20208;-62
2023/08/14 12:38:41;;;;;;;2.42;2.33;;;;;;;;;;5031361;28;20227;-63
2023/08/14 12:41:20;;;;;;;2.55;2.45;;;;;;;;;;5107980;27;20541;-65
2023/08/14 12:43:46;;;;;;;9.15;2.70;;;;;;;;;;5105702;28;20201;-65
2023/08/14 12:46:13;;;;;;;2.97;2.78;;;;;;;;;;5107144;28;20197;-66
2023/08/14 12:48:39;;;;;;;4.38;2.97;;;;;;;;;;5105929;28;20228;-66
2023/08/14 12:51:06;;;;;;;3.40;3.08;;;;;;;;;;5107325;28;20250;-65
2023/08/14 12:53:33;;;;;;;3.55;3.35;;;;;;;;;;5105355;28;20285;-66
2023/08/14 12:55:59;;;;;;;3.22;2.30;;;;;;;;;;5106838;28;20262;-65
2023/08/14 12:58:27;;;;;;;2.75;2.60;;;;;;;;;;5105345;28;20224;-65
2023/08/14 13:00:53;;;;;;;2.95;2.70;;;;;;;;;;5106443;28;20229;-64
2023/08/14 13:03:20;;;;;;;2.53;2.33;;;;;;;;;;5105895;28;20204;-66
2023/08/14 13:05:46;;;;;;;2.83;2.42;;;;;;;;;;5106973;28;20616;-65
2023/08/14 13:08:13;;;;;;;2.90;2.63;;;;;;;;;;5105601;28;20201;-65
2023/08/14 13:10:39;;;;;;;2.40;2.20;;;;;;;;;;5106201;28;20194;-66
2023/08/14 13:13:06;;;;;;;3.22;2.70;;;;;;;;;;5100046;28;20202;-65
2023/08/14 13:15:34;;;;;;;2.97;2.78;;;;;;;;;;5087383;28;20201;-65
2023/08/14 13:18:00;;;;;;;3.35;2.70;;;;;;;;;;5074683;28;20194;-65
2023/08/14 13:20:27;;;;;;;3.78;3.13;;;;;;;;;;5086800;28;20707;-65
2023/08/14 13:22:53;;;;;;;3.67;2.17;;;;;;;;;;5086843;28;20201;-65
2023/08/14 13:25:20;;;;;;;4.15;2.10;;;;;;;;;;5087075;28;20259;-66
2023/08/14 13:27:46;;;;;;;2.53;2.42;;;;;;;;;;5087892;28;20230;-65
2023/08/14 13:30:13;;;;;;;2.17;1.98;;;;;;;;;;5087345;28;20213;-65
2023/08/14 13:32:41;;;;;;;3.45;2.50;;;;;;;;;;5088053;28;20237;-65
2023/08/14 13:35:08;;;;;;;2.53;2.05;;;;;;;;;;5086506;28;20241;-65
2023/08/14 13:37:34;;;;;;;3.10;2.90;;;;;;;;;;5087037;28;20212;-65
2023/08/14 13:40:00;;;;;;;2.47;2.28;;;;;;;;;;5086358;28;20753;-65
2023/08/14 13:42:27;;;;;;;2.50;2.40;;;;;;;;;;5087089;28;20748;-65
2023/08/14 13:44:53;;;;;;;3.03;2.63;;;;;;;;;;5088110;28;20236;-65
2023/08/14 13:47:20;;;;;;;5.38;3.10;;;;;;;;;;5086205;28;20198;-65
2023/08/14 13:49:47;;;;;;;3.30;2.60;;;;;;;;;;5087556;28;20657;-65
2023/08/14 13:52:14;;;;;;;4.82;4.43;;;;;;;;;;5075256;28;20727;-65
2023/08/14 13:54:42;;;;;;;2.40;2.20;;;;;;;;;;5073870;28;20205;-65
2023/08/14 13:57:08;;;;;;;3.22;3.03;;;;;;;;;;5073358;28;20238;-65
2023/08/14 13:59:35;;;;;;;2.83;2.63;;;;;;;;;;5073463;28;20249;-65
2023/08/14 14:02:01;;;;;;;2.60;2.40;;;;;;;;;;5073295;28;20281;-65
2023/08/14 14:04:28;;;;;;;4.70;3.30;;;;;;;;;;5073812;28;20213;-65
2023/08/14 14:06:56;;;;;;;2.53;2.33;;;;;;;;;;5073403;28;20202;-65
2023/08/14 14:09:22;;;;;;;4.10;2.60;;;;;;;;;;5072682;28;20274;-66
2023/08/14 14:11:48;;;;;;;3.08;2.78;;;;;;;;;;5072979;28;20234;-65
2023/08/14 14:14:15;;;;;;;2.78;2.55;;;;;;;;;;5073188;28;20264;-65
2023/08/14 14:16:51;;;;;;;6.57;3.40;;;;;;;;;;5073240;28;20260;-66
2023/08/14 14:19:17;;;;;;;4.63;2.90;;;;;;;;;;5072621;28;20241;-65
2023/08/14 14:21:44;;;;;;;5.35;2.95;;;;;;;;;;5072506;28;20264;-65
2023/08/14 14:24:12;;;;;;;2.33;2.15;;;;;;;;;;5072105;28;20690;-65
2023/08/14 14:26:38;;;;;;;2.70;2.60;;;;;;;;;;5072975;28;20252;-66
2023/08/14 14:29:05;;;;;;;5.50;3.20;;;;;;;;;;5072550;28;20275;-64
2023/08/14 14:31:31;;;;;;;2.65;2.30;;;;;;;;;;5072398;28;20676;-65
2023/08/14 14:33:58;;;;;;;2.72;2.47;;;;;;;;;;5072933;28;20272;-66